createdAt,value
2023-03-26T00:01:25.230Z,97371.45
2023-03-26T00:03:58.284Z,97377.51
2023-03-26T00:06:30.420Z,97379.39
2023-03-26T00:08:58.985Z,97382.09
2023-03-26T00:11:27.860Z,97386.81
2023-03-26T00:13:58.654Z,97387.23
2023-03-26T00:16:30.008Z,97392.29
2023-03-26T00:18:57.957Z,97386.89
2023-03-26T00:21:28.148Z,97386.72
2023-03-26T00:23:58.699Z,97385.79
2023-03-26T00:26:31.417Z,97379.80
2023-03-26T00:29:00.327Z,97375.49
2023-03-26T00:31:27.781Z,97379.39
2023-03-26T00:33:55.942Z,97381.86
2023-03-26T00:36:28.152Z,97378.33
2023-03-26T00:38:55.773Z,97369.23
2023-03-26T00:41:26.179Z,97366.77
2023-03-26T00:43:59.304Z,97368.37
2023-03-26T00:46:28.582Z,97359.04
2023-03-26T00:48:58.880Z,97359.13
2023-03-26T00:51:27.146Z,97353.80
2023-03-26T00:53:54.258Z,97354.68
2023-03-26T00:56:21.053Z,97350.92
2023-03-26T00:58:50.372Z,97349.79
2023-03-26T01:01:21.864Z,97349.41
2023-03-26T01:04:15.356Z,97350.91
2023-03-26T01:06:42.345Z,97346.05
2023-03-26T01:09:16.926Z,97345.83
2023-03-26T01:11:44.829Z,97344.29
2023-03-26T01:14:19.233Z,97343.30
2023-03-26T01:16:52.304Z,97340.75
2023-03-26T01:19:45.998Z,97338.35
2023-03-26T01:22:22.540Z,97344.35
2023-03-26T01:24:59.002Z,97339.98
2023-03-26T01:27:36.211Z,97343.47
2023-03-26T01:30:11.376Z,97343.89
2023-03-26T01:32:59.507Z,97340.06
2023-03-26T01:35:35.436Z,97337.01
2023-03-26T01:38:23.378Z,97334.48
2023-03-26T01:41:07.964Z,97341.31
2023-03-26T01:43:51.694Z,97352.66
2023-03-26T01:46:21.590Z,97358.89
2023-03-26T01:48:49.281Z,97375.65
2023-03-26T01:51:30.554Z,97391.05
2023-03-26T01:53:58.657Z,97384.81
2023-03-26T01:56:53.292Z,97367.29
2023-03-26T01:59:49.085Z,97355.42
2023-03-26T02:02:37.365Z,97341.70
2023-03-26T02:05:10.916Z,97329.64
2023-03-26T02:07:45.011Z,97324.45
2023-03-26T02:10:23.404Z,97327.77
2023-03-26T02:12:50.923Z,97322.59
2023-03-26T02:15:17.707Z,97316.86
2023-03-26T02:17:44.475Z,97310.37
2023-03-26T02:20:14.475Z,97314.89
2023-03-26T02:22:46.270Z,97319.40
2023-03-26T02:25:18.182Z,97323.69
2023-03-26T02:27:46.402Z,97325.69
2023-03-26T02:30:19.919Z,97330.55
2023-03-26T02:32:47.042Z,97328.13
2023-03-26T02:35:14.031Z,97326.55
2023-03-26T02:37:42.299Z,97326.49
2023-03-26T02:40:11.900Z,97322.02
2023-03-26T02:42:39.123Z,97322.45
2023-03-26T02:45:06.918Z,97318.14
2023-03-26T02:47:33.989Z,97319.84
2023-03-26T02:50:01.765Z,97320.98
2023-03-26T02:52:28.530Z,97324.77
2023-03-26T02:54:55.639Z,97323.33
2023-03-26T02:57:24.110Z,97319.75
2023-03-26T02:59:52.993Z,97322.15
2023-03-26T03:02:22.914Z,97324.35
2023-03-26T03:04:49.517Z,97323.91
2023-03-26T03:07:16.317Z,97322.13
2023-03-26T03:09:43.113Z,97320.21
2023-03-26T03:12:09.787Z,97324.20
2023-03-26T03:14:37.935Z,97323.52
2023-03-26T03:17:04.779Z,97324.98
2023-03-26T03:19:31.631Z,97317.05
2023-03-26T03:21:58.322Z,97313.88
2023-03-26T03:24:27.147Z,97313.88
2023-03-26T03:26:56.948Z,97311.84
2023-03-26T03:29:24.016Z,97312.16
2023-03-26T03:31:51.061Z,97311.63
2023-03-26T03:34:17.943Z,97313.54
2023-03-26T03:36:48.834Z,97314.46
2023-03-26T03:39:15.947Z,97313.37
2023-03-26T03:41:42.680Z,97315.65
2023-03-26T03:44:09.527Z,97312.63
2023-03-26T03:46:36.234Z,97313.30
2023-03-26T03:49:03.545Z,97312.94
2023-03-26T03:51:30.763Z,97311.77
2023-03-26T03:53:57.645Z,97313.95
2023-03-26T03:56:26.212Z,97318.72
2023-03-26T03:58:53.345Z,97314.64
2023-03-26T04:01:22.960Z,97315.39
2023-03-26T04:03:50.245Z,97313.09
2023-03-26T04:06:19.382Z,97316.81
2023-03-26T04:08:46.640Z,97313.92
2023-03-26T04:11:14.517Z,97309.17
2023-03-26T04:13:41.338Z,97311.58
2023-03-26T04:16:08.737Z,97312.23
2023-03-26T04:18:37.548Z,97311.08
2023-03-26T04:21:05.651Z,97310.30
2023-03-26T04:23:32.439Z,97304.48
2023-03-26T04:26:04.363Z,97308.94
2023-03-26T04:28:43.279Z,97309.14
2023-03-26T04:31:17.471Z,97305.95
2023-03-26T04:33:47.409Z,97303.34
2023-03-26T04:36:16.100Z,97300.79
2023-03-26T04:38:52.118Z,97300.13
2023-03-26T04:41:22.475Z,97299.92
2023-03-26T04:43:50.887Z,97296.23
2023-03-26T04:46:23.987Z,97295.16
2023-03-26T04:48:55.039Z,97285.98
2023-03-26T04:51:25.834Z,97284.91
2023-03-26T04:53:57.863Z,97287.96
2023-03-26T04:56:30.799Z,97288.91
2023-03-26T04:59:00.835Z,97287.36
2023-03-26T05:01:31.285Z,97285.97
2023-03-26T05:04:01.544Z,97290.08
2023-03-26T05:06:30.557Z,97292.73
2023-03-26T05:08:57.648Z,97294.39
2023-03-26T05:11:24.425Z,97292.55
2023-03-26T05:13:51.202Z,97292.13
2023-03-26T05:16:18.054Z,97297.45
2023-03-26T05:18:44.799Z,97291.31
2023-03-26T05:21:12.021Z,97290.83
2023-03-26T05:23:38.976Z,97293.81
2023-03-26T05:26:07.658Z,97295.94
2023-03-26T05:28:34.896Z,97294.80
2023-03-26T05:31:01.758Z,97295.31
2023-03-26T05:33:29.026Z,97296.48
2023-03-26T05:36:08.043Z,97296.52
2023-03-26T05:38:35.815Z,97293.77
2023-03-26T05:41:07.704Z,97293.63
2023-03-26T05:43:35.322Z,97293.69
2023-03-26T05:46:02.587Z,97290.60
2023-03-26T05:48:29.501Z,97290.95
2023-03-26T05:50:57.912Z,97283.90
2023-03-26T05:53:27.018Z,97291.58
2023-03-26T05:56:04.478Z,97290.77
2023-03-26T05:58:33.930Z,97290.77
2023-03-26T06:01:06.046Z,97283.05
2023-03-26T06:03:34.334Z,97283.67
2023-03-26T06:06:01.363Z,97286.91
2023-03-26T06:08:28.294Z,97288.48
2023-03-26T06:11:03.199Z,97292.95
2023-03-26T06:13:31.028Z,97293.95
2023-03-26T06:16:00.659Z,97291.58
2023-03-26T06:18:27.515Z,97294.21
2023-03-26T06:20:54.502Z,97293.71
2023-03-26T06:23:23.243Z,97293.10
2023-03-26T06:25:50.011Z,97293.30
2023-03-26T06:28:16.909Z,97298.84
2023-03-26T06:30:43.695Z,97298.51
2023-03-26T06:33:11.183Z,97299.71
2023-03-26T06:35:37.979Z,97300.63
2023-03-26T06:38:05.480Z,97296.00
2023-03-26T06:40:33.250Z,97295.95
2023-03-26T06:43:10.144Z,97293.39
2023-03-26T06:45:38.475Z,97297.98
2023-03-26T06:48:05.810Z,97299.04
2023-03-26T06:50:33.281Z,97296.24
2023-03-26T06:53:01.224Z,97292.75
2023-03-26T06:55:28.283Z,97293.52
2023-03-26T06:57:56.200Z,97293.89
2023-03-26T07:00:23.024Z,97295.52
2023-03-26T07:02:50.074Z,97295.82
2023-03-26T07:05:17.191Z,97294.27
2023-03-26T07:07:46.665Z,97298.38
2023-03-26T07:10:15.386Z,97303.02
2023-03-26T07:12:43.081Z,97294.85
2023-03-26T07:15:10.625Z,97298.67
2023-03-26T07:17:37.857Z,97300.64
2023-03-26T07:20:08.913Z,97299.84
2023-03-26T07:22:36.194Z,97301.14
2023-03-26T07:25:03.734Z,97301.41
2023-03-26T07:27:52.604Z,97301.02
2023-03-26T07:30:47.162Z,97299.54
2023-03-26T07:33:26.074Z,97299.48
2023-03-26T07:36:15.185Z,97296.23
2023-03-26T07:38:44.830Z,97292.62
2023-03-26T07:41:19.023Z,97285.59
2023-03-26T07:43:59.840Z,97284.27
2023-03-26T07:46:32.406Z,97282.85
2023-03-26T07:49:00.662Z,97283.85
2023-03-26T07:51:28.370Z,97278.73
2023-03-26T07:53:55.685Z,97275.81
2023-03-26T07:56:59.001Z,97275.55
2023-03-26T07:59:40.335Z,97269.45
2023-03-26T08:02:19.807Z,97264.44
2023-03-26T08:04:52.480Z,97264.09
2023-03-26T08:08:03.165Z,97264.11
2023-03-26T08:10:55.595Z,97268.47
2023-03-26T08:13:34.898Z,97274.24
2023-03-26T08:16:12.347Z,97274.93
2023-03-26T08:19:00.598Z,97272.09
2023-03-26T08:21:35.134Z,97260.36
2023-03-26T08:24:11.428Z,97259.88
2023-03-26T08:26:41.456Z,97264.36
2023-03-26T08:29:21.564Z,97265.47
2023-03-26T08:31:50.483Z,97269.48
2023-03-26T08:34:17.423Z,97269.23
2023-03-26T08:36:44.322Z,97270.31
2023-03-26T08:39:11.860Z,97265.92
2023-03-26T08:41:49.622Z,97270.45
2023-03-26T08:44:36.159Z,97268.19
2023-03-26T08:47:27.607Z,97268.63
2023-03-26T08:50:11.403Z,97268.80
2023-03-26T08:53:08.639Z,97268.67
2023-03-26T08:55:55.594Z,97267.70
2023-03-26T08:58:25.030Z,97266.35
2023-03-26T09:01:17.077Z,97264.64
2023-03-26T09:04:03.565Z,97265.06
2023-03-26T09:06:58.174Z,97261.00
2023-03-26T09:09:52.950Z,97262.66
2023-03-26T09:12:44.981Z,97258.23
2023-03-26T09:15:31.526Z,97259.23
2023-03-26T09:18:27.998Z,97258.09
2023-03-26T09:21:22.483Z,97248.99
2023-03-26T09:23:52.740Z,97252.50
2023-03-26T09:26:41.037Z,97248.05
2023-03-26T09:29:21.079Z,97244.11
2023-03-26T09:32:05.275Z,97245.64
2023-03-26T09:34:46.642Z,97244.52
2023-03-26T09:37:56.157Z,97249.04
2023-03-26T09:40:44.520Z,97250.21
2023-03-26T09:43:25.210Z,97251.96
2023-03-26T09:46:06.295Z,97251.27
2023-03-26T09:48:52.723Z,97253.86
2023-03-26T09:51:39.201Z,97252.58
2023-03-26T09:54:13.521Z,97245.70
2023-03-26T09:56:52.542Z,97238.70
2023-03-26T09:59:39.673Z,97238.44
2023-03-26T10:02:45.895Z,97228.98
2023-03-26T10:05:39.295Z,97234.39
2023-03-26T10:08:32.528Z,97236.59
2023-03-26T10:11:28.244Z,97237.15
2023-03-26T10:14:19.023Z,97235.08
2023-03-26T10:17:05.336Z,97234.92
2023-03-26T10:20:05.640Z,97231.89
2023-03-26T10:22:46.311Z,97234.09
2023-03-26T10:25:13.100Z,97226.73
2023-03-26T10:28:03.396Z,97228.02
2023-03-26T10:30:44.136Z,97218.90
2023-03-26T10:33:25.052Z,97214.16
2023-03-26T10:36:30.317Z,97206.80
2023-03-26T10:39:36.700Z,97205.77
2023-03-26T10:42:26.098Z,97210.23
2023-03-26T10:45:21.106Z,97211.63
2023-03-26T10:47:53.712Z,97209.73
2023-03-26T10:50:32.958Z,97211.15
2023-03-26T10:53:18.958Z,97210.22
2023-03-26T10:55:53.675Z,97208.55
2023-03-26T10:58:48.485Z,97206.98
2023-03-26T11:01:36.484Z,97207.02
2023-03-26T11:04:14.340Z,97204.91
2023-03-26T11:07:05.423Z,97204.64
2023-03-26T11:09:51.925Z,97201.13
2023-03-26T11:12:32.845Z,97200.12
2023-03-26T11:15:12.100Z,97204.09
2023-03-26T11:18:07.103Z,97200.39
2023-03-26T11:20:46.739Z,97202.35
2023-03-26T11:23:27.316Z,97199.79
2023-03-26T11:26:02.708Z,97197.21
2023-03-26T11:29:03.754Z,97192.72
2023-03-26T11:31:55.396Z,97194.23
2023-03-26T11:34:28.828Z,97184.69
2023-03-26T11:36:58.934Z,97184.30
2023-03-26T11:39:28.665Z,97177.38
2023-03-26T11:42:17.487Z,97176.91
2023-03-26T11:44:54.566Z,97169.77
2023-03-26T11:47:31.554Z,97167.30
2023-03-26T11:50:01.601Z,97167.14
2023-03-26T11:52:28.616Z,97161.30
2023-03-26T11:54:58.585Z,97165.23
2023-03-26T11:57:35.488Z,97162.66
2023-03-26T12:00:17.108Z,97157.91
2023-03-26T12:02:46.257Z,97159.36
2023-03-26T12:05:16.649Z,97155.13
2023-03-26T12:07:49.611Z,97154.30
2023-03-26T12:10:31.417Z,97153.85
2023-03-26T12:13:07.139Z,97148.34
2023-03-26T12:15:34.055Z,97139.90
2023-03-26T12:18:23.881Z,97139.88
2023-03-26T12:21:04.896Z,97141.63
2023-03-26T12:24:08.668Z,97134.23
2023-03-26T12:26:37.286Z,97135.69
2023-03-26T12:29:14.348Z,97138.17
2023-03-26T12:32:07.162Z,97139.65
2023-03-26T12:34:39.674Z,97138.63
2023-03-26T12:37:09.078Z,97138.62
2023-03-26T12:40:09.517Z,97134.48
2023-03-26T12:44:49.495Z,97127.78
2023-03-26T12:45:28.214Z,97126.48
2023-03-26T12:48:04.222Z,97126.88
2023-03-26T12:50:55.446Z,97125.47
2023-03-26T12:53:22.446Z,97124.85
2023-03-26T12:55:52.246Z,97127.54
2023-03-26T12:58:51.327Z,97121.79
2023-03-26T13:01:33.562Z,97122.45
2023-03-26T13:04:14.404Z,97119.85
2023-03-26T13:07:00.227Z,97115.66
2023-03-26T13:09:39.455Z,97117.65
2023-03-26T13:12:12.028Z,97116.72
2023-03-26T13:14:41.590Z,97110.91
2023-03-26T13:17:35.254Z,97106.52
2023-03-26T13:20:12.671Z,97092.77
2023-03-26T13:22:43.852Z,97089.73
2023-03-26T13:25:38.663Z,97084.27
2023-03-26T13:28:31.564Z,97081.92
2023-03-26T13:33:54.737Z,97067.91
2023-03-26T13:36:33.686Z,97066.70
2023-03-26T13:39:14.161Z,97061.77
2023-03-26T13:42:08.786Z,97059.60
2023-03-26T13:45:04.427Z,97057.56
2023-03-26T13:47:41.356Z,97059.84
2023-03-26T13:50:21.148Z,97051.47
2023-03-26T13:52:53.595Z,97048.55
2023-03-26T13:55:29.676Z,97042.02
2023-03-26T13:58:19.306Z,97044.73
2023-03-26T14:01:07.470Z,97039.84
2023-03-26T14:03:56.410Z,97037.92
2023-03-26T14:06:23.162Z,97042.08
2023-03-26T14:09:03.549Z,97040.86
2023-03-26T14:11:42.350Z,97038.16
2023-03-26T14:14:29.128Z,97030.58
2023-03-26T14:17:21.958Z,97026.82
2023-03-26T14:20:02.856Z,97024.58
2023-03-26T14:22:38.334Z,97032.00
2023-03-26T14:25:29.337Z,97026.54
2023-03-26T14:28:23.979Z,97032.80
2023-03-26T14:31:08.381Z,97032.93
2023-03-26T14:34:08.218Z,97033.75
2023-03-26T14:36:51.327Z,97030.70
2023-03-26T14:39:18.028Z,97026.79
2023-03-26T14:42:02.940Z,97025.66
2023-03-26T14:44:51.409Z,97025.96
2023-03-26T14:47:21.136Z,97027.85
2023-03-26T14:50:04.553Z,97027.54
2023-03-26T14:52:50.218Z,97030.14
2023-03-26T14:55:20.368Z,97028.73
2023-03-26T14:57:56.387Z,97026.48
2023-03-26T15:00:42.838Z,97029.36
2023-03-26T15:03:09.688Z,97031.70
2023-03-26T15:05:57.264Z,97025.80
2023-03-26T15:08:51.937Z,97019.61
2023-03-26T15:11:35.334Z,97018.29
2023-03-26T15:14:21.912Z,97014.81
2023-03-26T15:16:54.669Z,97014.41
2023-03-26T15:19:36.819Z,97013.64
2023-03-26T15:22:11.295Z,97011.54
2023-03-26T15:25:05.968Z,97012.61
2023-03-26T15:27:52.145Z,97010.36
2023-03-26T15:30:42.278Z,97006.64
2023-03-26T15:33:40.713Z,97010.40
2023-03-26T15:36:24.952Z,97005.67
2023-03-26T15:39:01.183Z,97001.70
2023-03-26T15:41:38.848Z,97003.85
2023-03-26T15:44:22.972Z,96999.57
2023-03-26T15:46:58.274Z,97006.38
2023-03-26T15:49:29.667Z,97004.80
2023-03-26T15:52:22.272Z,97003.07
2023-03-26T15:55:17.918Z,97004.02
2023-03-26T15:57:57.022Z,96999.06
2023-03-26T16:00:31.037Z,96998.11
2023-03-26T16:03:09.755Z,96994.60
2023-03-26T16:06:04.636Z,96993.42
2023-03-26T16:08:31.472Z,96987.94
2023-03-26T16:11:00.607Z,96984.77
2023-03-26T16:13:42.518Z,96985.23
2023-03-26T16:16:15.395Z,96981.42
2023-03-26T16:18:45.048Z,96978.94
2023-03-26T16:21:31.825Z,96979.61
2023-03-26T16:24:02.413Z,96978.34
2023-03-26T16:26:44.295Z,96978.91
2023-03-26T16:29:18.429Z,96974.98
2023-03-26T16:31:59.313Z,96973.08
2023-03-26T16:34:37.214Z,96975.02
2023-03-26T16:37:26.260Z,96970.48
2023-03-26T16:39:54.280Z,96974.62
2023-03-26T16:42:47.016Z,96970.52
2023-03-26T16:45:37.567Z,96970.41
2023-03-26T16:48:21.208Z,96970.61
2023-03-26T16:51:08.864Z,96971.41
2023-03-26T16:53:48.603Z,96975.89
2023-03-26T16:56:29.449Z,96972.45
2023-03-26T16:59:07.507Z,96974.70
2023-03-26T17:01:52.332Z,96971.02
2023-03-26T17:04:23.846Z,96969.41
2023-03-26T17:07:03.570Z,96972.13
2023-03-26T17:09:43.037Z,96963.91
2023-03-26T17:12:31.660Z,96966.63
2023-03-26T17:15:19.427Z,96966.12
2023-03-26T17:18:16.470Z,96965.61
2023-03-26T17:20:52.434Z,96960.46
2023-03-26T17:23:27.331Z,96959.23
2023-03-26T17:26:06.475Z,96961.09
2023-03-26T17:28:33.935Z,96968.86
2023-03-26T17:31:05.326Z,96967.70
2023-03-26T17:33:35.345Z,96971.01
2023-03-26T17:36:11.521Z,96968.03
2023-03-26T17:38:58.514Z,96969.05
2023-03-26T17:41:55.719Z,96969.27
2023-03-26T17:44:50.637Z,96969.48
2023-03-26T17:47:23.998Z,96971.02
2023-03-26T17:49:59.751Z,96969.11
2023-03-26T17:52:39.204Z,96971.84
2023-03-26T17:55:10.620Z,96969.03
2023-03-26T17:57:43.645Z,96971.30
2023-03-26T18:00:42.001Z,96973.41
2023-03-26T18:03:36.663Z,96973.00
2023-03-26T18:06:08.774Z,96969.34
2023-03-26T18:08:48.050Z,96974.25
2023-03-26T18:11:33.118Z,96974.48
2023-03-26T18:14:16.743Z,96973.05
2023-03-26T18:16:52.003Z,96981.39
2023-03-26T18:19:23.034Z,96983.27
2023-03-26T18:21:53.293Z,96978.73
2023-03-26T18:24:28.959Z,96975.88
2023-03-26T18:27:03.944Z,96976.75
2023-03-26T18:29:33.773Z,96973.45
2023-03-26T18:32:02.648Z,96968.29
2023-03-26T18:34:34.295Z,96964.23
2023-03-26T18:37:18.854Z,96968.58
2023-03-26T18:39:59.613Z,96968.63
2023-03-26T18:42:29.693Z,96963.19
2023-03-26T18:45:00.885Z,96960.62
2023-03-26T18:47:30.780Z,96958.82
2023-03-26T18:49:59.033Z,96950.18
2023-03-26T18:52:29.640Z,96947.41
2023-03-26T18:55:00.743Z,96953.72
2023-03-26T18:57:29.418Z,96957.50
2023-03-26T19:00:15.618Z,96957.94
2023-03-26T19:02:42.778Z,96960.36
2023-03-26T19:05:17.598Z,96960.00
2023-03-26T19:07:49.410Z,96956.67
2023-03-26T19:10:21.467Z,96953.86
2023-03-26T19:12:59.141Z,96952.02
2023-03-26T19:15:29.128Z,96951.55
2023-03-26T19:18:22.457Z,96946.38
2023-03-26T19:20:52.642Z,96944.73
2023-03-26T19:23:22.550Z,96939.98
2023-03-26T19:25:54.994Z,96938.46
2023-03-26T19:28:28.265Z,96940.02
2023-03-26T19:31:07.381Z,96939.99
2023-03-26T19:33:38.438Z,96937.02
2023-03-26T19:36:34.942Z,96936.88
2023-03-26T19:39:02.678Z,96938.05
2023-03-26T19:41:39.404Z,96939.30
2023-03-26T19:44:18.248Z,96940.27
2023-03-26T19:46:53.064Z,96939.98
2023-03-26T19:49:32.878Z,96938.02
2023-03-26T19:52:27.199Z,96940.19
2023-03-26T19:55:25.116Z,96944.90
2023-03-26T19:57:51.905Z,96936.96
2023-03-26T20:00:19.177Z,96935.85
2023-03-26T20:02:46.642Z,96939.23
2023-03-26T20:05:26.292Z,96936.95
2023-03-26T20:07:56.990Z,96933.63
2023-03-26T20:10:24.641Z,96939.83
2023-03-26T20:12:51.551Z,96936.48
2023-03-26T20:15:31.314Z,96938.85
2023-03-26T20:17:57.969Z,96937.10
2023-03-26T20:20:27.461Z,96936.15
2023-03-26T20:22:55.342Z,96941.73
2023-03-26T20:25:26.086Z,96941.61
2023-03-26T20:27:55.618Z,96939.34
2023-03-26T20:30:36.931Z,96942.36
2023-03-26T20:33:12.380Z,96939.27
2023-03-26T20:35:40.965Z,96938.84
2023-03-26T20:38:10.138Z,96935.40
2023-03-26T20:40:40.251Z,96933.10
2023-03-26T20:43:13.098Z,96933.23
2023-03-26T20:45:40.733Z,96927.02
2023-03-26T20:48:10.402Z,96921.09
2023-03-26T20:50:50.249Z,96919.88
2023-03-26T20:53:18.393Z,96913.62
2023-03-26T20:55:46.610Z,96911.78
2023-03-26T20:58:31.276Z,96910.10
2023-03-26T21:01:02.610Z,96900.70
2023-03-26T21:03:29.799Z,96898.64
2023-03-26T21:06:01.352Z,96890.54
2023-03-26T21:08:35.468Z,96883.66
2023-03-26T21:11:04.950Z,96878.82
2023-03-26T21:13:46.854Z,96879.50
2023-03-26T21:16:14.890Z,96877.98
2023-03-26T21:18:42.955Z,96871.93
2023-03-26T21:21:23.796Z,96870.86
2023-03-26T21:24:05.193Z,96865.26
2023-03-26T21:26:45.328Z,96859.88
2023-03-26T21:29:12.721Z,96854.52
2023-03-26T21:31:39.945Z,96859.13
2023-03-26T21:34:08.638Z,96857.68
2023-03-26T21:36:36.430Z,96852.45
2023-03-26T21:39:05.013Z,96849.75
2023-03-26T21:42:05.495Z,96841.20
2023-03-26T21:44:34.192Z,96831.48
2023-03-26T21:47:01.320Z,96832.48
2023-03-26T21:49:28.868Z,96831.73
2023-03-26T21:51:56.076Z,96842.16
2023-03-26T21:54:28.597Z,96860.58
2023-03-26T21:56:57.984Z,96868.59
2023-03-26T21:59:39.396Z,96875.08
2023-03-26T22:02:34.018Z,96873.77
2023-03-26T22:05:26.978Z,96881.15
2023-03-26T22:08:00.349Z,96881.88
2023-03-26T22:10:27.911Z,96877.80
2023-03-26T22:12:54.793Z,96869.77
2023-03-26T22:15:22.142Z,96865.90
2023-03-26T22:17:55.963Z,96859.75
2023-03-26T22:20:28.194Z,96856.28
2023-03-26T22:22:55.473Z,96853.49
2023-03-26T22:25:24.560Z,96852.92
2023-03-26T22:27:51.937Z,96849.48
2023-03-26T22:30:20.844Z,96846.02
2023-03-26T22:32:47.935Z,96839.72
2023-03-26T22:35:15.011Z,96836.50
2023-03-26T22:37:42.056Z,96835.05
2023-03-26T22:40:10.667Z,96833.39
2023-03-26T22:42:37.546Z,96839.30
2023-03-26T22:45:05.592Z,96841.80
2023-03-26T22:47:34.384Z,96844.70
2023-03-26T22:50:03.345Z,96842.40
2023-03-26T22:52:31.710Z,96843.92
2023-03-26T22:54:58.735Z,96839.17
2023-03-26T22:57:25.891Z,96831.12
2023-03-26T22:59:53.171Z,96825.97
2023-03-26T23:02:20.785Z,96818.74
2023-03-26T23:04:48.845Z,96818.70
2023-03-26T23:07:16.190Z,96817.95
2023-03-26T23:09:42.866Z,96808.29
2023-03-26T23:12:09.572Z,96797.15
2023-03-26T23:14:36.385Z,96794.36
2023-03-26T23:17:03.733Z,96789.71
2023-03-26T23:19:30.578Z,96786.61
2023-03-26T23:21:57.591Z,96783.41
2023-03-26T23:24:26.706Z,96778.79
2023-03-26T23:26:53.680Z,96777.02
2023-03-26T23:29:20.539Z,96771.58
2023-03-26T23:31:48.018Z,96770.80
2023-03-26T23:34:17.218Z,96767.48
2023-03-26T23:36:44.974Z,96765.52
2023-03-26T23:39:20.957Z,96761.00
2023-03-26T23:41:48.182Z,96755.67
2023-03-26T23:44:17.088Z,96755.25
2023-03-26T23:46:44.273Z,96749.58
2023-03-26T23:49:12.379Z,96746.48
2023-03-26T23:51:39.102Z,96743.86
2023-03-26T23:54:06.329Z,96745.19
2023-03-26T23:56:33.170Z,96743.70
2023-03-26T23:59:00.652Z,96741.20
